sensor_id;sensor_type;location;lat;lon;timestamp;temperature;humidity
1468;DHT22;727;48.892;9.544;2022-09-01T00:00:07;15.50;99.90
1468;DHT22;727;48.892;9.544;2022-09-01T00:02:36;15.40;99.90
1468;DHT22;727;48.892;9.544;2022-09-01T00:05:04;15.40;99.90
1468;DHT22;727;48.892;9.544;2022-09-01T00:07:32;15.30;99.90
1468;DHT22;727;48.892;9.544;2022-09-01T00:10:01;15.30;99.90
1468;DHT22;727;48.892;9.544;2022-09-01T00:12:29;15.30;99.90
1468;DHT22;727;48.892;9.544;2022-09-01T00:14:56;15.30;99.90
1468;DHT22;727;48.892;9.544;2022-09-01T00:17:23;15.30;99.90
1468;DHT22;727;48.892;9.544;2022-09-01T00:19:52;15.30;99.90
1468;DHT22;727;48.892;9.544;2022-09-01T00:22:18;15.20;99.90
1468;DHT22;727;48.892;9.544;2022-09-01T00:24:45;15.20;99.90
1468;DHT22;727;48.892;9.544;2022-09-01T00:27:12;15.30;99.90
1468;DHT22;727;48.892;9.544;2022-09-01T00:29:39;15.30;99.90
1468;DHT22;727;48.892;9.544;2022-09-01T00:32:06;15.30;99.90
1468;DHT22;727;48.892;9.544;2022-09-01T00:34:32;15.40;99.90
1468;DHT22;727;48.892;9.544;2022-09-01T00:37:00;15.50;99.90
1468;DHT22;727;48.892;9.544;2022-09-01T00:39:27;15.40;99.90
1468;DHT22;727;48.892;9.544;2022-09-01T00:41:54;15.40;99.90
1468;DHT22;727;48.892;9.544;2022-09-01T00:44:22;15.30;99.90
1468;DHT22;727;48.892;9.544;2022-09-01T00:46:52;15.20;99.90
1468;DHT22;727;48.892;9.544;2022-09-01T00:49:26;15.20;99.90
1468;DHT22;727;48.892;9.544;2022-09-01T00:51:58;15.20;99.90
1468;DHT22;727;48.892;9.544;2022-09-01T00:54:31;15.10;99.90
1468;DHT22;727;48.892;9.544;2022-09-01T00:56:59;15.00;99.90
1468;DHT22;727;48.892;9.544;2022-09-01T00:59:27;15.00;99.90
1468;DHT22;727;48.892;9.544;2022-09-01T01:01:54;15.00;99.90
1468;DHT22;727;48.892;9.544;2022-09-01T01:04:21;14.90;99.90
1468;DHT22;727;48.892;9.544;2022-09-01T01:06:51;14.90;99.90
1468;DHT22;727;48.892;9.544;2022-09-01T01:09:24;14.80;99.90
1468;DHT22;727;48.892;9.544;2022-09-01T01:11:52;14.80;99.90
1468;DHT22;727;48.892;9.544;2022-09-01T01:14:24;14.70;99.90
1468;DHT22;727;48.892;9.544;2022-09-01T01:16:53;14.60;99.90
1468;DHT22;727;48.892;9.544;2022-09-01T01:19:24;14.60;99.90
1468;DHT22;727;48.892;9.544;2022-09-01T01:22:19;14.60;99.90
1468;DHT22;727;48.892;9.544;2022-09-01T01:25:06;14.60;99.90
1468;DHT22;727;48.892;9.544;2022-09-01T01:27:34;14.50;99.90
1468;DHT22;727;48.892;9.544;2022-09-01T01:30:03;14.40;99.90
1468;DHT22;727;48.892;9.544;2022-09-01T01:32:32;14.40;99.90
1468;DHT22;727;48.892;9.544;2022-09-01T01:35:00;14.30;99.90
1468;DHT22;727;48.892;9.544;2022-09-01T01:37:30;14.20;99.90
1468;DHT22;727;48.892;9.544;2022-09-01T01:39:57;14.20;99.90
1468;DHT22;727;48.892;9.544;2022-09-01T01:42:25;14.20;99.90
1468;DHT22;727;48.892;9.544;2022-09-01T01:44:52;14.20;99.90
1468;DHT22;727;48.892;9.544;2022-09-01T01:47:20;14.10;99.90
1468;DHT22;727;48.892;9.544;2022-09-01T01:49:47;14.10;99.90
1468;DHT22;727;48.892;9.544;2022-09-01T01:52:14;14.10;99.90
1468;DHT22;727;48.892;9.544;2022-09-01T01:54:42;14.10;99.90
1468;DHT22;727;48.892;9.544;2022-09-01T01:57:11;14.00;99.90
1468;DHT22;727;48.892;9.544;2022-09-01T01:59:43;14.00;99.90
1468;DHT22;727;48.892;9.544;2022-09-01T02:02:09;14.00;99.90
1468;DHT22;727;48.892;9.544;2022-09-01T02:04:37;13.90;99.90
1468;DHT22;727;48.892;9.544;2022-09-01T02:07:08;13.90;99.90
1468;DHT22;727;48.892;9.544;2022-09-01T02:09:36;13.90;99.90
1468;DHT22;727;48.892;9.544;2022-09-01T02:12:05;13.90;99.90
1468;DHT22;727;48.892;9.544;2022-09-01T02:14:32;13.90;99.90
1468;DHT22;727;48.892;9.544;2022-09-01T02:17:00;13.80;99.90
1468;DHT22;727;48.892;9.544;2022-09-01T02:19:30;13.80;99.90
1468;DHT22;727;48.892;9.544;2022-09-01T02:21:58;13.80;99.90
1468;DHT22;727;48.892;9.544;2022-09-01T02:24:24;13.70;99.90
1468;DHT22;727;48.892;9.544;2022-09-01T02:26:56;13.70;99.90
1468;DHT22;727;48.892;9.544;2022-09-01T02:29:25;13.60;99.90
1468;DHT22;727;48.892;9.544;2022-09-01T02:31:54;13.70;99.90
1468;DHT22;727;48.892;9.544;2022-09-01T02:34:24;13.90;99.90
1468;DHT22;727;48.892;9.544;2022-09-01T02:36:54;13.90;99.90
1468;DHT22;727;48.892;9.544;2022-09-01T02:39:23;13.90;99.90
1468;DHT22;727;48.892;9.544;2022-09-01T02:41:50;13.80;99.90
1468;DHT22;727;48.892;9.544;2022-09-01T02:44:18;13.70;99.90
1468;DHT22;727;48.892;9.544;2022-09-01T02:46:47;13.60;99.90
1468;DHT22;727;48.892;9.544;2022-09-01T02:49:18;13.60;99.90
1468;DHT22;727;48.892;9.544;2022-09-01T02:51:52;13.60;99.90
1468;DHT22;727;48.892;9.544;2022-09-01T02:54:22;13.70;99.90
1468;DHT22;727;48.892;9.544;2022-09-01T02:56:50;13.80;99.90
1468;DHT22;727;48.892;9.544;2022-09-01T02:59:20;13.80;99.90
1468;DHT22;727;48.892;9.544;2022-09-01T03:01:48;13.80;99.90
1468;DHT22;727;48.892;9.544;2022-09-01T03:04:17;13.80;99.90
1468;DHT22;727;48.892;9.544;2022-09-01T03:06:44;13.80;99.90
1468;DHT22;727;48.892;9.544;2022-09-01T03:09:15;13.80;99.90
1468;DHT22;727;48.892;9.544;2022-09-01T03:11:45;13.80;99.90
1468;DHT22;727;48.892;9.544;2022-09-01T03:14:12;13.80;99.90
1468;DHT22;727;48.892;9.544;2022-09-01T03:16:39;13.80;99.90
1468;DHT22;727;48.892;9.544;2022-09-01T03:19:07;13.80;99.90
1468;DHT22;727;48.892;9.544;2022-09-01T03:21:36;13.80;99.90
1468;DHT22;727;48.892;9.544;2022-09-01T03:24:05;13.90;99.90
1468;DHT22;727;48.892;9.544;2022-09-01T03:26:35;13.90;99.90
1468;DHT22;727;48.892;9.544;2022-09-01T03:29:02;13.90;99.90
1468;DHT22;727;48.892;9.544;2022-09-01T03:31:30;13.90;99.90
1468;DHT22;727;48.892;9.544;2022-09-01T03:33:58;13.90;99.90
1468;DHT22;727;48.892;9.544;2022-09-01T03:36:28;13.80;99.90
1468;DHT22;727;48.892;9.544;2022-09-01T03:38:57;13.80;99.90
1468;DHT22;727;48.892;9.544;2022-09-01T03:41:26;13.80;99.90
1468;DHT22;727;48.892;9.544;2022-09-01T03:43:55;13.90;99.90
1468;DHT22;727;48.892;9.544;2022-09-01T03:46:24;14.00;99.90
1468;DHT22;727;48.892;9.544;2022-09-01T03:48:54;14.00;99.90
1468;DHT22;727;48.892;9.544;2022-09-01T03:51:23;14.10;99.90
1468;DHT22;727;48.892;9.544;2022-09-01T03:53:51;14.20;99.90
1468;DHT22;727;48.892;9.544;2022-09-01T03:56:19;14.20;99.90
1468;DHT22;727;48.892;9.544;2022-09-01T03:58:46;14.30;99.90
1468;DHT22;727;48.892;9.544;2022-09-01T04:01:15;14.40;99.90
1468;DHT22;727;48.892;9.544;2022-09-01T04:03:42;14.40;99.90
1468;DHT22;727;48.892;9.544;2022-09-01T04:06:14;14.40;99.90
1468;DHT22;727;48.892;9.544;2022-09-01T04:08:43;14.40;99.90
1468;DHT22;727;48.892;9.544;2022-09-01T04:11:13;14.30;99.90
1468;DHT22;727;48.892;9.544;2022-09-01T04:13:41;14.30;99.90
1468;DHT22;727;48.892;9.544;2022-09-01T04:16:18;14.20;99.90
1468;DHT22;727;48.892;9.544;2022-09-01T04:19:03;14.20;99.90
1468;DHT22;727;48.892;9.544;2022-09-01T04:21:40;14.10;99.90
1468;DHT22;727;48.892;9.544;2022-09-01T04:24:08;14.00;99.90
1468;DHT22;727;48.892;9.544;2022-09-01T04:26:37;13.90;99.90
1468;DHT22;727;48.892;9.544;2022-09-01T04:29:06;13.80;99.90
1468;DHT22;727;48.892;9.544;2022-09-01T04:31:38;13.80;99.90
1468;DHT22;727;48.892;9.544;2022-09-01T04:34:07;13.70;99.90
1468;DHT22;727;48.892;9.544;2022-09-01T04:36:38;13.70;99.90
1468;DHT22;727;48.892;9.544;2022-09-01T04:39:06;13.80;99.90
1468;DHT22;727;48.892;9.544;2022-09-01T04:41:36;13.80;99.90
1468;DHT22;727;48.892;9.544;2022-09-01T04:44:05;13.80;99.90
1468;DHT22;727;48.892;9.544;2022-09-01T04:46:34;13.80;99.90
1468;DHT22;727;48.892;9.544;2022-09-01T04:49:03;13.80;99.90
1468;DHT22;727;48.892;9.544;2022-09-01T04:51:37;14.00;99.90
1468;DHT22;727;48.892;9.544;2022-09-01T04:54:04;14.00;99.90
1468;DHT22;727;48.892;9.544;2022-09-01T04:56:37;14.00;99.90
1468;DHT22;727;48.892;9.544;2022-09-01T04:59:05;14.00;99.90
1468;DHT22;727;48.892;9.544;2022-09-01T05:01:33;14.00;99.90
1468;DHT22;727;48.892;9.544;2022-09-01T05:04:09;14.10;99.90
1468;DHT22;727;48.892;9.544;2022-09-01T05:06:39;14.10;99.90
1468;DHT22;727;48.892;9.544;2022-09-01T05:09:07;14.10;99.90
1468;DHT22;727;48.892;9.544;2022-09-01T05:11:35;14.10;99.90
1468;DHT22;727;48.892;9.544;2022-09-01T05:14:03;14.20;99.90
1468;DHT22;727;48.892;9.544;2022-09-01T05:16:32;14.30;99.90
1468;DHT22;727;48.892;9.544;2022-09-01T05:19:00;14.30;99.90
1468;DHT22;727;48.892;9.544;2022-09-01T05:21:28;14.40;99.90
1468;DHT22;727;48.892;9.544;2022-09-01T05:23:56;14.40;99.90
1468;DHT22;727;48.892;9.544;2022-09-01T05:26:26;14.50;99.90
1468;DHT22;727;48.892;9.544;2022-09-01T05:28:56;14.60;99.90
1468;DHT22;727;48.892;9.544;2022-09-01T05:31:25;14.60;99.90
1468;DHT22;727;48.892;9.544;2022-09-01T05:33:53;14.70;99.90
1468;DHT22;727;48.892;9.544;2022-09-01T05:36:23;14.80;99.90
1468;DHT22;727;48.892;9.544;2022-09-01T05:38:52;14.90;99.90
1468;DHT22;727;48.892;9.544;2022-09-01T05:41:20;15.00;99.90
1468;DHT22;727;48.892;9.544;2022-09-01T05:43:48;15.10;99.90
1468;DHT22;727;48.892;9.544;2022-09-01T05:46:18;15.20;99.90
1468;DHT22;727;48.892;9.544;2022-09-01T05:48:47;15.40;99.90
1468;DHT22;727;48.892;9.544;2022-09-01T05:51:16;15.50;99.90
1468;DHT22;727;48.892;9.544;2022-09-01T05:53:44;15.60;99.90
1468;DHT22;727;48.892;9.544;2022-09-01T05:56:12;15.70;99.90
1468;DHT22;727;48.892;9.544;2022-09-01T05:58:40;15.80;99.90
1468;DHT22;727;48.892;9.544;2022-09-01T06:01:08;15.90;99.90
1468;DHT22;727;48.892;9.544;2022-09-01T06:03:37;16.10;99.90
1468;DHT22;727;48.892;9.544;2022-09-01T06:06:09;16.10;99.90
1468;DHT22;727;48.892;9.544;2022-09-01T06:08:37;16.30;99.90
1468;DHT22;727;48.892;9.544;2022-09-01T06:11:07;16.20;99.90
1468;DHT22;727;48.892;9.544;2022-09-01T06:13:39;16.30;99.90
1468;DHT22;727;48.892;9.544;2022-09-01T06:16:07;16.30;99.90
1468;DHT22;727;48.892;9.544;2022-09-01T06:18:34;16.60;99.90
1468;DHT22;727;48.892;9.544;2022-09-01T06:21:02;16.70;99.90
1468;DHT22;727;48.892;9.544;2022-09-01T06:23:29;17.00;99.90
1468;DHT22;727;48.892;9.544;2022-09-01T06:25:58;18.70;99.90
1468;DHT22;727;48.892;9.544;2022-09-01T06:28:25;20.90;99.90
1468;DHT22;727;48.892;9.544;2022-09-01T06:30:55;22.50;99.90
1468;DHT22;727;48.892;9.544;2022-09-01T06:33:23;23.70;96.30
1468;DHT22;727;48.892;9.544;2022-09-01T06:35:51;24.10;93.00
1468;DHT22;727;48.892;9.544;2022-09-01T06:38:18;24.00;91.80
1468;DHT22;727;48.892;9.544;2022-09-01T06:40:45;23.50;91.60
1468;DHT22;727;48.892;9.544;2022-09-01T06:43:13;23.20;91.90
1468;DHT22;727;48.892;9.544;2022-09-01T06:45:42;22.80;92.20
1468;DHT22;727;48.892;9.544;2022-09-01T06:48:12;22.10;93.40
1468;DHT22;727;48.892;9.544;2022-09-01T06:50:41;21.40;94.80
1468;DHT22;727;48.892;9.544;2022-09-01T06:53:08;20.80;95.70
1468;DHT22;727;48.892;9.544;2022-09-01T06:55:36;20.50;96.40
1468;DHT22;727;48.892;9.544;2022-09-01T06:58:03;20.30;97.00
1468;DHT22;727;48.892;9.544;2022-09-01T07:00:32;20.20;97.50
1468;DHT22;727;48.892;9.544;2022-09-01T07:02:59;20.10;98.20
1468;DHT22;727;48.892;9.544;2022-09-01T07:05:29;20.10;98.70
1468;DHT22;727;48.892;9.544;2022-09-01T07:07:58;20.10;98.40
1468;DHT22;727;48.892;9.544;2022-09-01T07:10:26;20.20;98.00
1468;DHT22;727;48.892;9.544;2022-09-01T07:12:54;20.00;98.30
1468;DHT22;727;48.892;9.544;2022-09-01T07:15:22;19.80;98.70
1468;DHT22;727;48.892;9.544;2022-09-01T07:17:50;19.60;99.10
1468;DHT22;727;48.892;9.544;2022-09-01T07:20:20;19.70;99.40
1468;DHT22;727;48.892;9.544;2022-09-01T07:22:48;19.80;99.50
1468;DHT22;727;48.892;9.544;2022-09-01T07:25:15;19.80;99.40
1468;DHT22;727;48.892;9.544;2022-09-01T07:27:43;19.80;99.50
1468;DHT22;727;48.892;9.544;2022-09-01T07:30:15;19.90;99.80
1468;DHT22;727;48.892;9.544;2022-09-01T07:32:43;20.00;99.20
1468;DHT22;727;48.892;9.544;2022-09-01T07:35:11;20.00;98.60
1468;DHT22;727;48.892;9.544;2022-09-01T07:37:38;20.20;98.40
1468;DHT22;727;48.892;9.544;2022-09-01T07:40:09;20.60;98.00
1468;DHT22;727;48.892;9.544;2022-09-01T07:42:36;21.10;97.00
1468;DHT22;727;48.892;9.544;2022-09-01T07:45:05;21.70;95.70
1468;DHT22;727;48.892;9.544;2022-09-01T07:47:34;21.90;94.90
1468;DHT22;727;48.892;9.544;2022-09-01T07:50:02;21.90;94.50
1468;DHT22;727;48.892;9.544;2022-09-01T07:52:33;22.20;94.30
1468;DHT22;727;48.892;9.544;2022-09-01T07:55:01;22.40;93.40
1468;DHT22;727;48.892;9.544;2022-09-01T07:57:29;22.50;93.00
1468;DHT22;727;48.892;9.544;2022-09-01T07:59:56;22.60;92.90
1468;DHT22;727;48.892;9.544;2022-09-01T08:02:23;22.60;92.70
1468;DHT22;727;48.892;9.544;2022-09-01T08:04:52;22.50;91.50
1468;DHT22;727;48.892;9.544;2022-09-01T08:07:19;22.20;92.20
1468;DHT22;727;48.892;9.544;2022-09-01T08:09:46;22.20;91.80
1468;DHT22;727;48.892;9.544;2022-09-01T08:12:13;22.10;92.00
1468;DHT22;727;48.892;9.544;2022-09-01T08:14:41;21.90;92.30
1468;DHT22;727;48.892;9.544;2022-09-01T08:17:08;21.70;92.10
1468;DHT22;727;48.892;9.544;2022-09-01T08:19:35;21.70;92.50
1468;DHT22;727;48.892;9.544;2022-09-01T08:22:02;21.60;92.70
1468;DHT22;727;48.892;9.544;2022-09-01T08:24:29;21.70;93.20
1468;DHT22;727;48.892;9.544;2022-09-01T08:26:56;21.80;92.60
1468;DHT22;727;48.892;9.544;2022-09-01T08:29:22;21.70;92.50
1468;DHT22;727;48.892;9.544;2022-09-01T08:31:50;21.70;92.40
1468;DHT22;727;48.892;9.544;2022-09-01T08:34:18;21.70;92.00
1468;DHT22;727;48.892;9.544;2022-09-01T08:36:44;21.60;92.00
1468;DHT22;727;48.892;9.544;2022-09-01T08:39:11;21.50;92.10
1468;DHT22;727;48.892;9.544;2022-09-01T08:41:42;21.40;92.10
1468;DHT22;727;48.892;9.544;2022-09-01T08:44:18;21.40;91.90
1468;DHT22;727;48.892;9.544;2022-09-01T08:46:47;21.40;92.10
1468;DHT22;727;48.892;9.544;2022-09-01T08:49:23;21.50;92.20
1468;DHT22;727;48.892;9.544;2022-09-01T08:51:53;21.40;92.00
1468;DHT22;727;48.892;9.544;2022-09-01T08:54:27;21.20;92.30
1468;DHT22;727;48.892;9.544;2022-09-01T08:56:57;21.20;92.50
1468;DHT22;727;48.892;9.544;2022-09-01T08:59:25;21.00;92.50
1468;DHT22;727;48.892;9.544;2022-09-01T09:01:59;21.10;92.80
1468;DHT22;727;48.892;9.544;2022-09-01T09:04:43;21.20;92.70
1468;DHT22;727;48.892;9.544;2022-09-01T09:07:21;21.30;92.60
1468;DHT22;727;48.892;9.544;2022-09-01T09:09:56;21.50;92.70
1468;DHT22;727;48.892;9.544;2022-09-01T09:12:31;21.70;92.40
1468;DHT22;727;48.892;9.544;2022-09-01T09:15:10;22.00;91.90
1468;DHT22;727;48.892;9.544;2022-09-01T09:17:45;22.10;91.20
1468;DHT22;727;48.892;9.544;2022-09-01T09:20:15;22.10;91.20
1468;DHT22;727;48.892;9.544;2022-09-01T09:22:44;22.20;90.80
1468;DHT22;727;48.892;9.544;2022-09-01T09:25:17;22.30;90.30
1468;DHT22;727;48.892;9.544;2022-09-01T09:27:46;22.40;90.60
1468;DHT22;727;48.892;9.544;2022-09-01T09:30:14;22.50;89.80
1468;DHT22;727;48.892;9.544;2022-09-01T09:32:48;22.70;89.40
1468;DHT22;727;48.892;9.544;2022-09-01T09:35:24;22.70;88.70
1468;DHT22;727;48.892;9.544;2022-09-01T09:38:16;22.60;89.20
1468;DHT22;727;48.892;9.544;2022-09-01T09:40:59;22.90;88.40
1468;DHT22;727;48.892;9.544;2022-09-01T09:43:28;23.10;87.60
1468;DHT22;727;48.892;9.544;2022-09-01T09:46:23;23.20;87.30
1468;DHT22;727;48.892;9.544;2022-09-01T09:49:12;23.10;87.00
1468;DHT22;727;48.892;9.544;2022-09-01T09:51:44;22.90;88.20
1468;DHT22;727;48.892;9.544;2022-09-01T09:54:16;22.50;88.70
1468;DHT22;727;48.892;9.544;2022-09-01T09:56:44;22.40;89.90
1468;DHT22;727;48.892;9.544;2022-09-01T09:59:21;22.60;89.70
1468;DHT22;727;48.892;9.544;2022-09-01T10:01:49;22.60;88.90
1468;DHT22;727;48.892;9.544;2022-09-01T10:04:33;22.80;88.80
1468;DHT22;727;48.892;9.544;2022-09-01T10:07:23;22.90;87.80
1468;DHT22;727;48.892;9.544;2022-09-01T10:09:52;23.00;88.60
1468;DHT22;727;48.892;9.544;2022-09-01T10:12:19;23.00;87.40
1468;DHT22;727;48.892;9.544;2022-09-01T10:14:50;23.00;87.20
1468;DHT22;727;48.892;9.544;2022-09-01T10:17:22;22.80;87.70
1468;DHT22;727;48.892;9.544;2022-09-01T10:19:53;22.80;87.70
1468;DHT22;727;48.892;9.544;2022-09-01T10:22:23;22.80;87.70
1468;DHT22;727;48.892;9.544;2022-09-01T10:24:50;23.10;87.60
1468;DHT22;727;48.892;9.544;2022-09-01T10:27:20;23.20;85.90
1468;DHT22;727;48.892;9.544;2022-09-01T10:29:53;23.40;86.00
1468;DHT22;727;48.892;9.544;2022-09-01T10:32:25;23.70;84.20
1468;DHT22;727;48.892;9.544;2022-09-01T10:34:54;23.80;83.40
1468;DHT22;727;48.892;9.544;2022-09-01T10:37:23;23.90;83.10
1468;DHT22;727;48.892;9.544;2022-09-01T10:40:16;24.10;83.00
1468;DHT22;727;48.892;9.544;2022-09-01T10:42:45;24.30;81.00
1468;DHT22;727;48.892;9.544;2022-09-01T10:45:18;24.10;81.20
1468;DHT22;727;48.892;9.544;2022-09-01T10:47:48;24.60;82.70
1468;DHT22;727;48.892;9.544;2022-09-01T10:50:27;25.10;79.30
1468;DHT22;727;48.892;9.544;2022-09-01T10:53:01;25.80;77.30
1468;DHT22;727;48.892;9.544;2022-09-01T10:55:31;25.70;75.60
1468;DHT22;727;48.892;9.544;2022-09-01T10:58:12;25.40;74.90
1468;DHT22;727;48.892;9.544;2022-09-01T11:00:47;24.90;76.70
1468;DHT22;727;48.892;9.544;2022-09-01T11:06:53;24.20;78.70
1468;DHT22;727;48.892;9.544;2022-09-01T11:09:25;24.00;79.50
1468;DHT22;727;48.892;9.544;2022-09-01T11:12:24;23.90;78.90
1468;DHT22;727;48.892;9.544;2022-09-01T11:14:54;23.90;79.90
1468;DHT22;727;48.892;9.544;2022-09-01T11:17:23;24.20;79.50
1468;DHT22;727;48.892;9.544;2022-09-01T11:19:57;24.20;79.10
1468;DHT22;727;48.892;9.544;2022-09-01T11:22:36;24.40;78.40
1468;DHT22;727;48.892;9.544;2022-09-01T11:25:39;24.40;77.60
1468;DHT22;727;48.892;9.544;2022-09-01T11:28:36;24.30;77.50
1468;DHT22;727;48.892;9.544;2022-09-01T11:31:15;24.50;77.80
1468;DHT22;727;48.892;9.544;2022-09-01T11:33:52;24.40;78.40
1468;DHT22;727;48.892;9.544;2022-09-01T11:36:27;24.40;78.60
1468;DHT22;727;48.892;9.544;2022-09-01T11:39:04;24.20;78.90
1468;DHT22;727;48.892;9.544;2022-09-01T11:41:42;24.10;78.70
1468;DHT22;727;48.892;9.544;2022-09-01T11:44:14;23.90;78.70
1468;DHT22;727;48.892;9.544;2022-09-01T11:46:43;24.00;80.30
1468;DHT22;727;48.892;9.544;2022-09-01T11:49:25;24.30;78.50
1468;DHT22;727;48.892;9.544;2022-09-01T11:51:53;24.80;75.70
1468;DHT22;727;48.892;9.544;2022-09-01T11:54:21;24.90;75.20
1468;DHT22;727;48.892;9.544;2022-09-01T11:56:50;25.00;75.00
1468;DHT22;727;48.892;9.544;2022-09-01T11:59:30;25.20;74.50
1468;DHT22;727;48.892;9.544;2022-09-01T12:01:57;25.50;74.10
1468;DHT22;727;48.892;9.544;2022-09-01T12:04:25;26.00;73.60
1468;DHT22;727;48.892;9.544;2022-09-01T12:06:58;26.50;71.30
1468;DHT22;727;48.892;9.544;2022-09-01T12:09:37;26.40;71.80
1468;DHT22;727;48.892;9.544;2022-09-01T12:12:07;26.50;69.00
1468;DHT22;727;48.892;9.544;2022-09-01T12:14:55;26.10;70.80
1468;DHT22;727;48.892;9.544;2022-09-01T12:17:21;26.70;71.30
1468;DHT22;727;48.892;9.544;2022-09-01T12:19:48;27.00;68.50
1468;DHT22;727;48.892;9.544;2022-09-01T12:22:17;26.70;69.40
1468;DHT22;727;48.892;9.544;2022-09-01T12:24:45;26.40;69.30
1468;DHT22;727;48.892;9.544;2022-09-01T12:27:14;26.90;70.10
1468;DHT22;727;48.892;9.544;2022-09-01T12:29:41;27.00;67.70
1468;DHT22;727;48.892;9.544;2022-09-01T12:32:09;27.30;66.00
1468;DHT22;727;48.892;9.544;2022-09-01T12:34:39;27.40;63.00
1468;DHT22;727;48.892;9.544;2022-09-01T12:37:10;27.60;63.80
1468;DHT22;727;48.892;9.544;2022-09-01T12:39:38;27.90;61.50
1468;DHT22;727;48.892;9.544;2022-09-01T12:42:11;28.60;58.70
1468;DHT22;727;48.892;9.544;2022-09-01T12:44:49;28.30;58.70
1468;DHT22;727;48.892;9.544;2022-09-01T12:47:49;28.40;58.40
1468;DHT22;727;48.892;9.544;2022-09-01T12:50:40;29.10;56.80
1468;DHT22;727;48.892;9.544;2022-09-01T12:53:16;29.40;55.40
1468;DHT22;727;48.892;9.544;2022-09-01T12:58:36;29.40;54.30
1468;DHT22;727;48.892;9.544;2022-09-01T13:01:06;28.00;56.40
1468;DHT22;727;48.892;9.544;2022-09-01T13:03:34;28.40;56.90
1468;DHT22;727;48.892;9.544;2022-09-01T13:06:02;28.30;56.60
1468;DHT22;727;48.892;9.544;2022-09-01T13:08:30;28.80;55.90
1468;DHT22;727;48.892;9.544;2022-09-01T13:11:02;28.80;55.70
1468;DHT22;727;48.892;9.544;2022-09-01T13:13:29;29.20;54.90
1468;DHT22;727;48.892;9.544;2022-09-01T13:15:58;29.00;55.20
1468;DHT22;727;48.892;9.544;2022-09-01T13:18:27;28.60;55.50
1468;DHT22;727;48.892;9.544;2022-09-01T13:20:55;28.10;57.10
1468;DHT22;727;48.892;9.544;2022-09-01T13:23:22;27.70;57.90
1468;DHT22;727;48.892;9.544;2022-09-01T13:25:49;27.40;58.70
1468;DHT22;727;48.892;9.544;2022-09-01T13:28:17;27.40;58.50
1468;DHT22;727;48.892;9.544;2022-09-01T13:30:48;27.30;59.30
1468;DHT22;727;48.892;9.544;2022-09-01T13:33:17;26.80;58.60
1468;DHT22;727;48.892;9.544;2022-09-01T13:35:45;26.00;60.00
1468;DHT22;727;48.892;9.544;2022-09-01T13:38:12;26.30;60.40
1468;DHT22;727;48.892;9.544;2022-09-01T13:40:41;26.40;60.30
1468;DHT22;727;48.892;9.544;2022-09-01T13:43:09;26.90;59.60
1468;DHT22;727;48.892;9.544;2022-09-01T13:45:36;27.00;59.60
1468;DHT22;727;48.892;9.544;2022-09-01T13:48:05;27.10;58.90
1468;DHT22;727;48.892;9.544;2022-09-01T13:50:32;27.20;59.90
1468;DHT22;727;48.892;9.544;2022-09-01T13:53:00;27.00;60.10
1468;DHT22;727;48.892;9.544;2022-09-01T13:55:28;27.00;59.80
1468;DHT22;727;48.892;9.544;2022-09-01T13:57:55;27.10;59.80
1468;DHT22;727;48.892;9.544;2022-09-01T14:00:24;26.90;60.40
1468;DHT22;727;48.892;9.544;2022-09-01T14:02:55;26.50;61.50
1468;DHT22;727;48.892;9.544;2022-09-01T14:05:26;26.60;61.60
1468;DHT22;727;48.892;9.544;2022-09-01T14:07:53;26.50;61.60
1468;DHT22;727;48.892;9.544;2022-09-01T14:10:23;26.00;61.90
1468;DHT22;727;48.892;9.544;2022-09-01T14:12:50;25.50;64.10
1468;DHT22;727;48.892;9.544;2022-09-01T14:15:18;25.10;64.70
1468;DHT22;727;48.892;9.544;2022-09-01T14:17:47;24.70;65.80
1468;DHT22;727;48.892;9.544;2022-09-01T14:20:16;24.60;66.30
1468;DHT22;727;48.892;9.544;2022-09-01T14:22:43;24.40;66.40
1468;DHT22;727;48.892;9.544;2022-09-01T14:25:11;24.30;67.30
1468;DHT22;727;48.892;9.544;2022-09-01T14:27:39;24.30;68.00
1468;DHT22;727;48.892;9.544;2022-09-01T14:30:13;24.30;67.90
1468;DHT22;727;48.892;9.544;2022-09-01T14:32:40;24.20;67.40
1468;DHT22;727;48.892;9.544;2022-09-01T14:35:07;24.10;66.80
1468;DHT22;727;48.892;9.544;2022-09-01T14:37:35;24.10;66.70
1468;DHT22;727;48.892;9.544;2022-09-01T14:40:03;24.10;66.70
1468;DHT22;727;48.892;9.544;2022-09-01T14:42:30;24.10;66.60
1468;DHT22;727;48.892;9.544;2022-09-01T14:44:58;24.10;66.60
1468;DHT22;727;48.892;9.544;2022-09-01T14:47:26;24.20;66.60
1468;DHT22;727;48.892;9.544;2022-09-01T14:49:53;24.30;66.70
1468;DHT22;727;48.892;9.544;2022-09-01T14:52:20;24.30;67.20
1468;DHT22;727;48.892;9.544;2022-09-01T14:54:47;24.20;67.00
1468;DHT22;727;48.892;9.544;2022-09-01T14:57:14;24.20;67.90
1468;DHT22;727;48.892;9.544;2022-09-01T14:59:41;24.00;67.90
1468;DHT22;727;48.892;9.544;2022-09-01T15:02:09;23.90;68.30
1468;DHT22;727;48.892;9.544;2022-09-01T15:04:36;23.90;69.10
1468;DHT22;727;48.892;9.544;2022-09-01T15:07:04;23.90;69.40
1468;DHT22;727;48.892;9.544;2022-09-01T15:09:31;24.00;70.50
1468;DHT22;727;48.892;9.544;2022-09-01T15:11:57;24.50;69.50
1468;DHT22;727;48.892;9.544;2022-09-01T15:14:24;24.60;68.60
1468;DHT22;727;48.892;9.544;2022-09-01T15:16:51;24.60;67.10
1468;DHT22;727;48.892;9.544;2022-09-01T15:19:19;24.30;68.40
1468;DHT22;727;48.892;9.544;2022-09-01T15:21:46;24.30;67.90
1468;DHT22;727;48.892;9.544;2022-09-01T15:24:13;24.10;67.80
1468;DHT22;727;48.892;9.544;2022-09-01T15:26:40;24.30;67.10
1468;DHT22;727;48.892;9.544;2022-09-01T15:29:08;24.20;66.40
1468;DHT22;727;48.892;9.544;2022-09-01T15:31:40;24.30;65.70
1468;DHT22;727;48.892;9.544;2022-09-01T15:34:07;24.40;65.40
1468;DHT22;727;48.892;9.544;2022-09-01T15:36:37;24.50;63.60
1468;DHT22;727;48.892;9.544;2022-09-01T15:39:05;24.60;63.50
1468;DHT22;727;48.892;9.544;2022-09-01T15:41:33;24.70;64.10
1468;DHT22;727;48.892;9.544;2022-09-01T15:44:07;24.50;62.20
1468;DHT22;727;48.892;9.544;2022-09-01T15:46:35;24.20;63.10
1468;DHT22;727;48.892;9.544;2022-09-01T15:49:05;24.10;63.40
1468;DHT22;727;48.892;9.544;2022-09-01T15:51:35;24.00;64.00
1468;DHT22;727;48.892;9.544;2022-09-01T15:54:05;24.00;65.10
1468;DHT22;727;48.892;9.544;2022-09-01T15:56:32;23.80;66.30
1468;DHT22;727;48.892;9.544;2022-09-01T15:58:59;23.70;67.00
1468;DHT22;727;48.892;9.544;2022-09-01T16:01:28;23.60;67.90
1468;DHT22;727;48.892;9.544;2022-09-01T16:03:56;23.50;67.60
1468;DHT22;727;48.892;9.544;2022-09-01T16:06:23;23.40;68.10
1468;DHT22;727;48.892;9.544;2022-09-01T16:08:52;23.30;69.00
1468;DHT22;727;48.892;9.544;2022-09-01T16:11:20;23.20;69.70
1468;DHT22;727;48.892;9.544;2022-09-01T16:13:48;23.30;69.90
1468;DHT22;727;48.892;9.544;2022-09-01T16:16:30;23.10;70.40
1468;DHT22;727;48.892;9.544;2022-09-01T16:19:02;23.10;69.50
1468;DHT22;727;48.892;9.544;2022-09-01T16:21:37;23.00;69.90
1468;DHT22;727;48.892;9.544;2022-09-01T16:24:10;23.10;70.00
1468;DHT22;727;48.892;9.544;2022-09-01T16:26:38;23.10;70.80
1468;DHT22;727;48.892;9.544;2022-09-01T16:29:08;23.10;70.40
1468;DHT22;727;48.892;9.544;2022-09-01T16:31:36;23.10;70.60
1468;DHT22;727;48.892;9.544;2022-09-01T16:34:10;23.10;70.80
1468;DHT22;727;48.892;9.544;2022-09-01T16:36:47;23.10;70.70
1468;DHT22;727;48.892;9.544;2022-09-01T16:39:20;23.00;71.40
1468;DHT22;727;48.892;9.544;2022-09-01T16:41:55;22.80;71.70